Time;durP1;ratioP1;P1;durP2;ratioP2;P2;SDS_P1;SDS_P2;PMS_P1;PMS_P2;Temp;Humidity;BMP_temperature;BMP_pressure;BME280_temperature;BME280_humidity;BME280_pressure;Samples;Min_cycle;Max_cycle;Signal;HPM_P1;HPM_P2
2022/06/20 00:01:23;;;;;;;12.93;8.50;;;;;;;26.89;47.64;99510.34;5013255;28;97968;-79
2022/06/20 00:03:50;;;;;;;18.15;8.63;;;;;;;26.85;47.64;99512.56;5012782;28;97155;-81
2022/06/20 00:06:19;;;;;;;12.05;8.38;;;;;;;26.86;47.89;99511.53;5011241;28;96882;-79
2022/06/20 00:08:46;;;;;;;12.68;8.45;;;;;;;26.72;47.89;99488.06;5011823;28;97877;-79
2022/06/20 00:11:16;;;;;;;14.93;8.90;;;;;;;26.81;47.90;99499.63;5010787;28;97419;-79
2022/06/20 00:13:44;;;;;;;16.73;9.43;;;;;;;26.81;47.53;99489.69;5012407;28;96851;-79
2022/06/20 00:16:14;;;;;;;14.75;8.65;;;;;;;26.75;47.92;99479.63;5014227;28;96916;-80
2022/06/20 00:18:40;;;;;;;18.93;9.07;;;;;;;26.79;48.00;99505.22;5012983;28;98290;-79
2022/06/20 00:21:06;;;;;;;12.77;8.73;;;;;;;26.74;48.10;99496.81;5030736;28;97380;-81
2022/06/20 00:23:31;;;;;;;9.80;8.52;;;;;;;26.68;48.15;99494.00;5028933;28;97637;-79
2022/06/20 00:25:57;;;;;;;15.98;9.20;;;;;;;26.67;47.92;99493.13;4995574;28;96927;-80
2022/06/20 00:28:23;;;;;;;13.88;8.82;;;;;;;26.72;48.22;99495.31;5031875;27;97322;-80
2022/06/20 00:30:48;;;;;;;13.57;9.20;;;;;;;26.60;48.12;99484.94;5033232;28;97766;-80
2022/06/20 00:33:14;;;;;;;13.20;8.98;;;;;;;26.66;48.19;99501.41;5034050;28;96916;-80
2022/06/20 00:35:40;;;;;;;13.05;9.13;;;;;;;26.50;48.58;99478.06;5017523;28;97159;-80
2022/06/20 00:38:07;;;;;;;12.20;9.23;;;;;;;26.61;48.30;99497.38;5015793;28;102118;-80
2022/06/20 00:40:43;;;;;;;14.77;8.70;;;;;;;26.62;48.68;99499.06;5016236;28;97515;-80
2022/06/20 00:43:11;;;;;;;16.55;8.60;;;;;;;26.57;48.39;99481.75;5030993;27;96933;-80
2022/06/20 00:45:42;;;;;;;14.00;8.70;;;;;;;26.59;48.71;99501.28;5033923;28;97301;-80
2022/06/20 00:48:12;;;;;;;20.88;8.90;;;;;;;26.51;48.62;99499.44;5017407;28;97442;-80
2022/06/20 00:50:37;;;;;;;12.32;9.23;;;;;;;26.43;48.85;99492.19;5013655;28;100683;-79
2022/06/20 00:53:26;;;;;;;12.88;9.00;;;;;;;26.43;49.10;99496.75;5028711;28;97303;-80
2022/06/20 00:55:56;;;;;;;12.32;8.93;;;;;;;26.42;49.05;99495.09;5041105;27;97030;-80
2022/06/20 00:58:31;;;;;;;25.27;9.52;;;;;;;26.42;49.19;99493.22;5012288;28;101272;-80
2022/06/20 01:00:58;;;;;;;17.92;9.55;;;;;;;26.36;48.89;99490.41;5007085;28;101289;-80
2022/06/20 01:03:26;;;;;;;11.88;8.85;;;;;;;26.29;48.94;99474.09;5012441;28;97073;-80
2022/06/20 01:06:18;;;;;;;15.30;8.95;;;;;;;26.35;49.13;99488.69;5033524;28;96930;-80
2022/06/20 01:08:46;;;;;;;16.88;9.10;;;;;;;26.30;49.45;99493.78;5034996;27;101318;-79
2022/06/20 01:11:16;;;;;;;15.15;9.18;;;;;;;26.26;49.38;99487.06;5010858;28;98283;-80
2022/06/20 01:13:43;;;;;;;12.67;9.40;;;;;;;26.25;49.38;99480.00;5032360;28;97402;-79
2022/06/20 01:16:14;;;;;;;20.58;10.75;;;;;;;26.22;49.27;99485.75;5029055;28;97014;-80
2022/06/20 01:18:42;;;;;;;22.05;9.93;;;;;;;26.19;49.68;99495.00;5015657;28;101389;-79
2022/06/20 01:21:12;;;;;;;17.13;9.52;;;;;;;26.14;49.87;99494.66;4997175;28;100031;-79
2022/06/20 01:23:48;;;;;;;12.82;9.20;;;;;;;26.16;50.00;99498.88;5016261;28;96720;-79
2022/06/20 01:26:30;;;;;;;14.73;9.05;;;;;;;26.01;50.12;99479.09;5016634;28;96779;-79
2022/06/20 01:28:59;;;;;;;12.15;8.80;;;;;;;25.99;50.07;99489.16;5033747;27;98109;-80
2022/06/20 01:31:25;;;;;;;13.65;9.88;;;;;;;26.02;50.02;99510.31;4996351;28;101488;-79
2022/06/20 01:33:51;;;;;;;14.50;9.35;;;;;;;25.95;50.46;99517.41;5031028;28;97035;-79
2022/06/20 01:39:03;;;;;;;18.40;8.65;;;;;;;25.85;50.75;99524.81;5033087;27;98044;-80
2022/06/20 01:44:17;;;;;;;11.75;9.10;;;;;;;25.78;50.98;99510.34;5033313;28;97359;-79
2022/06/20 01:46:43;;;;;;;13.32;9.38;;;;;;;25.81;51.18;99526.13;5034984;27;97924;-78
2022/06/20 01:49:15;;;;;;;16.80;8.73;;;;;;;25.77;51.20;99527.47;5027865;28;97906;-79
2022/06/20 01:51:57;;;;;;;13.07;8.60;;;;;;;25.72;51.47;99519.91;4995162;28;101640;-81
2022/06/20 01:54:23;;;;;;;22.50;9.63;;;;;;;25.74;51.74;99531.31;5004034;28;97296;-79
2022/06/20 01:56:50;;;;;;;13.82;8.98;;;;;;;25.74;51.58;99545.63;5031087;28;97169;-81
2022/06/20 01:59:27;;;;;;;16.80;9.80;;;;;;;25.67;52.11;99549.13;5015844;28;97528;-79
2022/06/20 02:01:53;;;;;;;17.20;10.05;;;;;;;25.59;52.52;99552.66;5032245;28;97459;-78
2022/06/20 02:04:22;;;;;;;12.88;9.10;;;;;;;25.65;52.68;99561.91;5011553;28;97969;-78
2022/06/20 02:06:48;;;;;;;14.82;9.68;;;;;;;25.58;53.02;99564.41;5016252;28;97444;-78
2022/06/20 02:09:14;;;;;;;15.15;9.85;;;;;;;25.59;53.11;99576.84;5005570;28;97168;-78
2022/06/20 02:11:42;;;;;;;16.95;9.43;;;;;;;25.60;53.26;99577.66;5013235;28;97723;-80
2022/06/20 02:14:41;;;;;;;17.20;9.82;;;;;;;25.52;53.38;99586.59;5013345;28;96839;-79
2022/06/20 02:17:12;;;;;;;17.30;11.52;;;;;;;25.51;53.54;99575.00;5029752;28;96884;-79
2022/06/20 02:19:43;;;;;;;15.35;10.07;;;;;;;25.53;53.41;99578.34;5011982;28;97930;-78
2022/06/20 02:22:09;;;;;;;15.88;9.45;;;;;;;25.44;54.19;99576.66;5007341;28;100697;-78
2022/06/20 02:24:42;;;;;;;16.15;10.05;;;;;;;25.46;54.24;99573.81;5007796;28;96755;-79
2022/06/20 02:27:17;;;;;;;18.27;9.80;;;;;;;25.39;54.34;99581.69;5014160;28;96792;-81
2022/06/20 02:29:43;;;;;;;14.32;10.02;;;;;;;25.22;55.13;99574.59;5009015;28;98009;-78
2022/06/20 02:32:12;;;;;;;15.32;9.30;;;;;;;25.34;55.02;99589.41;4991075;28;100715;-78
2022/06/20 02:34:38;;;;;;;14.93;9.48;;;;;;;25.24;55.00;99573.44;5032553;28;97240;-81
2022/06/20 02:37:09;;;;;;;16.63;9.98;;;;;;;25.29;55.32;99591.75;5026492;28;97634;-78
2022/06/20 02:39:38;;;;;;;20.27;9.68;;;;;;;25.26;55.59;99597.44;5031796;28;97560;-78
2022/06/20 02:42:06;;;;;;;14.80;10.05;;;;;;;25.14;55.91;99604.97;5030572;28;97403;-81
2022/06/20 02:44:32;;;;;;;19.65;11.00;;;;;;;25.14;56.25;99596.09;5031455;28;97280;-78
2022/06/20 02:47:02;;;;;;;16.83;9.90;;;;;;;25.06;56.39;99608.44;5014437;28;96908;-78
2022/06/20 02:49:29;;;;;;;16.10;10.88;;;;;;;24.92;56.34;99602.84;5031407;28;97481;-78
2022/06/20 02:51:54;;;;;;;15.50;9.98;;;;;;;24.97;56.34;99619.31;5030311;27;97340;-78
2022/06/20 02:54:22;;;;;;;15.70;10.88;;;;;;;24.84;56.41;99601.81;5011111;28;97655;-78
2022/06/20 02:56:54;;;;;;;25.35;10.93;;;;;;;24.77;56.60;99603.44;5013151;28;98400;-78
2022/06/20 02:59:26;;;;;;;15.90;11.35;;;;;;;24.85;56.91;99624.97;5015026;28;97605;-78
2022/06/20 03:01:57;;;;;;;16.50;11.20;;;;;;;24.76;57.00;99622.41;5014527;28;97923;-78
2022/06/20 03:04:23;;;;;;;13.80;10.82;;;;;;;24.53;57.00;99590.75;5014516;28;97185;-81
2022/06/20 03:07:01;;;;;;;17.95;11.13;;;;;;;24.77;56.84;99614.19;4997629;28;96863;-78
2022/06/20 03:09:30;;;;;;;17.95;11.30;;;;;;;24.63;57.00;99612.94;5031289;28;97476;-79
2022/06/20 03:11:56;;;;;;;17.33;10.80;;;;;;;24.58;57.20;99604.53;5014179;28;101486;-81
2022/06/20 03:14:27;;;;;;;18.92;11.07;;;;;;;24.62;57.13;99607.75;5010903;28;97281;-78
2022/06/20 03:16:52;;;;;;;12.20;11.00;;;;;;;24.57;57.10;99593.97;5031376;28;97500;-78
2022/06/20 03:19:25;;;;;;;16.33;10.60;;;;;;;24.58;57.31;99599.19;5012823;28;101250;-79
2022/06/20 03:21:52;;;;;;;13.75;11.10;;;;;;;24.59;57.19;99603.53;5013419;28;100890;-81
2022/06/20 03:24:21;;;;;;;13.85;11.18;;;;;;;24.68;56.87;99603.59;5014236;28;99764;-78
2022/06/20 03:26:47;;;;;;;14.15;10.32;;;;;;;24.57;57.38;99600.16;5011636;28;97735;-78
2022/06/20 03:29:15;;;;;;;17.45;10.93;;;;;;;24.56;57.55;99595.81;5009263;28;101440;-78
2022/06/20 03:31:41;;;;;;;15.57;10.27;;;;;;;24.48;57.36;99576.16;5002461;28;97875;-78
2022/06/20 03:34:07;;;;;;;12.65;11.32;;;;;;;24.72;57.08;99591.50;5010903;28;97245;-81
2022/06/20 03:36:34;;;;;;;12.25;10.60;;;;;;;24.71;57.00;99593.38;5024289;28;96874;-79
2022/06/20 03:39:00;;;;;;;13.68;11.48;;;;;;;24.64;57.24;99589.66;4995803;28;101545;-79
2022/06/20 03:41:26;;;;;;;19.13;11.90;;;;;;;24.65;56.72;99580.59;5022730;28;101453;-79
2022/06/20 03:44:03;;;;;;;17.52;12.23;;;;;;;24.58;56.86;99572.34;5009850;28;96737;-78
2022/06/20 03:46:33;;;;;;;16.20;11.10;;;;;;;24.69;56.69;99579.25;5017353;28;96965;-78
2022/06/20 03:49:12;;;;;;;16.13;12.23;;;;;;;24.59;56.88;99571.34;5013091;28;97380;-79
2022/06/20 03:51:42;;;;;;;14.48;11.50;;;;;;;24.53;56.91;99571.16;5008787;28;98093;-78
2022/06/20 03:54:17;;;;;;;20.63;12.57;;;;;;;24.55;57.25;99572.69;5006747;28;97207;-78
2022/06/20 03:56:50;;;;;;;13.98;11.88;;;;;;;24.72;57.04;99581.63;5004875;28;97840;-78
2022/06/20 03:59:24;;;;;;;22.00;13.30;;;;;;;24.72;56.79;99575.41;5024322;28;97518;-78
2022/06/20 04:02:11;;;;;;;17.58;12.15;;;;;;;24.81;56.59;99588.72;5006593;28;97985;-78
2022/06/20 04:04:42;;;;;;;17.00;12.15;;;;;;;24.71;56.66;99579.13;5026789;28;96891;-78
2022/06/20 04:07:14;;;;;;;13.20;11.27;;;;;;;24.80;56.55;99603.13;5009721;28;96876;-78
2022/06/20 04:12:50;;;;;;;17.35;12.73;;;;;;;24.89;56.24;99603.16;5011468;28;100696;-81
2022/06/20 04:15:28;;;;;;;15.55;12.63;;;;;;;24.94;55.83;99592.78;5026708;28;96686;-78
2022/06/20 04:18:28;;;;;;;15.15;12.13;;;;;;;24.87;56.35;99600.66;5021334;28;96799;-78
2022/06/20 04:21:03;;;;;;;24.33;13.38;;;;;;;25.04;56.13;99588.13;5008883;28;101368;-78
2022/06/20 04:23:36;;;;;;;17.00;12.30;;;;;;;25.06;55.87;99581.59;5017581;28;101730;-79
2022/06/20 04:26:17;;;;;;;18.13;13.77;;;;;;;25.06;55.69;99572.69;5016737;28;96757;-78
2022/06/20 04:28:58;;;;;;;15.27;12.57;;;;;;;25.01;56.07;99578.53;5006310;28;97055;-77
2022/06/20 04:31:58;;;;;;;17.00;13.27;;;;;;;24.98;56.06;99578.03;5028028;28;97998;-79
2022/06/20 04:34:35;;;;;;;18.10;13.43;;;;;;;24.90;56.05;99576.19;5015698;28;101283;-79
2022/06/20 04:37:18;;;;;;;17.83;13.25;;;;;;;24.88;56.30;99575.50;5008700;28;96680;-79
2022/06/20 04:40:04;;;;;;;15.90;12.98;;;;;;;24.89;56.02;99576.31;5029312;28;97767;-78
2022/06/20 04:42:48;;;;;;;14.70;12.13;;;;;;;24.76;55.76;99560.69;5032221;28;101807;-81
2022/06/20 04:45:17;;;;;;;17.10;12.43;;;;;;;24.84;55.90;99574.13;5032221;28;101101;-79
2022/06/20 04:47:47;;;;;;;17.38;12.43;;;;;;;24.89;55.92;99587.91;5030678;28;97112;-78
2022/06/20 04:50:22;;;;;;;18.23;12.45;;;;;;;24.88;55.66;99580.03;5025969;28;97147;-79
2022/06/20 04:52:49;;;;;;;16.92;12.55;;;;;;;24.83;55.72;99588.56;4997007;28;101880;-78
2022/06/20 04:55:17;;;;;;;16.73;13.07;;;;;;;24.77;55.80;99576.63;5008368;28;99508;-80
2022/06/20 04:57:43;;;;;;;17.08;15.52;;;;;;;24.94;55.85;99596.31;5027399;28;97322;-80
2022/06/20 05:00:16;;;;;;;16.95;12.32;;;;;;;25.03;55.46;99597.19;5008212;28;97454;-78
2022/06/20 05:02:41;;;;;;;17.83;13.38;;;;;;;25.18;55.28;99597.44;5013951;28;98027;-79
2022/06/20 05:05:12;;;;;;;18.08;13.68;;;;;;;25.05;55.09;99589.81;5029290;28;97464;-79
2022/06/20 05:07:39;;;;;;;19.85;14.20;;;;;;;24.89;55.66;99584.38;4995121;28;97470;-76
2022/06/20 05:10:11;;;;;;;25.13;14.52;;;;;;;24.88;56.18;99591.59;5027395;28;98242;-76
2022/06/20 05:12:44;;;;;;;15.90;13.98;;;;;;;24.88;56.02;99588.06;5022434;28;98643;-75
2022/06/20 05:15:24;;;;;;;20.88;14.68;;;;;;;24.45;57.14;99571.94;5007690;28;97400;-76
2022/06/20 05:17:50;;;;;;;22.40;15.57;;;;;;;24.13;58.15;99565.34;5003322;28;96777;-77
2022/06/20 05:20:19;;;;;;;21.08;16.30;;;;;;;23.90;59.25;99573.06;5005400;28;96884;-77
2022/06/20 05:22:50;;;;;;;22.42;15.00;;;;;;;23.65;59.85;99574.69;5018662;28;99064;-75
2022/06/20 05:25:21;;;;;;;23.35;14.45;;;;;;;23.76;59.89;99560.22;5015348;28;97297;-75
2022/06/20 05:27:54;;;;;;;19.13;14.43;;;;;;;23.63;60.62;99562.44;5025014;28;96873;-75
2022/06/20 05:30:24;;;;;;;20.83;15.20;;;;;;;23.43;61.11;99556.38;5018691;28;96737;-75
2022/06/20 05:33:02;;;;;;;19.00;15.68;;;;;;;23.35;61.54;99559.00;5010569;28;101059;-77
2022/06/20 05:35:37;;;;;;;21.13;16.45;;;;;;;23.43;61.33;99548.34;5023973;28;97657;-78
2022/06/20 05:38:11;;;;;;;22.27;15.55;;;;;;;23.36;61.76;99544.59;5016008;28;97223;-79
2022/06/20 05:40:41;;;;;;;21.73;15.82;;;;;;;23.41;61.71;99539.63;5023781;28;96811;-79
2022/06/20 05:43:20;;;;;;;17.52;15.68;;;;;;;23.27;61.94;99535.63;5001730;28;101102;-77
2022/06/20 05:45:51;;;;;;;19.27;15.90;;;;;;;23.42;61.89;99544.84;5022569;28;97599;-76
2022/06/20 05:48:18;;;;;;;18.00;14.80;;;;;;;23.65;61.30;99552.38;5023889;28;97556;-76
2022/06/20 05:50:47;;;;;;;19.20;14.40;;;;;;;23.96;60.26;99547.47;5029519;28;97026;-77
2022/06/20 05:53:39;;;;;;;22.38;14.75;;;;;;;24.37;59.17;99550.41;5028362;28;98029;-78
2022/06/20 05:56:16;;;;;;;16.83;15.02;;;;;;;24.55;58.31;99545.84;5009206;28;98414;-78
2022/06/20 05:58:44;;;;;;;18.90;14.05;;;;;;;24.68;58.50;99564.16;5026819;28;98151;-79
2022/06/20 06:01:17;;;;;;;24.45;14.65;;;;;;;25.05;57.88;99566.50;5000722;28;98489;-79
2022/06/20 06:04:02;;;;;;;19.85;14.63;;;;;;;25.50;56.89;99546.44;4998990;28;97375;-78
2022/06/20 06:06:37;;;;;;;17.70;14.10;;;;;;;25.98;55.65;99546.63;5010588;28;99638;-79
2022/06/20 06:09:26;;;;;;;15.68;13.63;;;;;;;26.54;53.84;99552.06;5009795;28;96940;-79
2022/06/20 06:12:03;;;;;;;19.20;15.40;;;;;;;27.02;52.15;99523.22;5026856;28;96995;-79
2022/06/20 06:14:40;;;;;;;21.13;14.98;;;;;;;27.64;51.12;99516.94;5017202;28;97597;-79
2022/06/20 06:17:11;;;;;;;17.00;14.32;;;;;;;28.07;49.95;99514.50;5020021;28;97681;-79
2022/06/20 06:19:40;;;;;;;19.67;15.15;;;;;;;28.37;49.20;99493.78;5029168;28;96799;-78
2022/06/20 06:22:11;;;;;;;20.58;15.57;;;;;;;28.24;48.88;99486.34;5011823;28;98243;-82
2022/06/20 06:24:37;;;;;;;;;;;;;;;28.51;48.59;99484.00;5028517;27;98148;-82
2022/06/20 06:27:05;;;;;;;19.10;14.80;;;;;;;28.90;47.64;99486.34;5012764;28;97910;-82
2022/06/20 06:29:38;;;;;;;16.15;13.98;;;;;;;29.15;47.19;99497.69;5010291;28;97095;-82
2022/06/20 06:32:43;;;;;;;20.83;13.30;;;;;;;29.42;46.10;99492.53;5012848;28;96867;-84
2022/06/20 06:35:11;;;;;;;17.00;14.25;;;;;;;29.86;45.94;99481.47;5004578;28;100453;-83
2022/06/20 06:38:00;;;;;;;15.18;13.32;;;;;;;30.08;45.01;99475.97;5020441;28;101413;-82
2022/06/20 06:40:35;;;;;;;17.63;12.82;;;;;;;29.73;46.05;99470.53;5009751;28;96798;-87
2022/06/20 06:43:09;;;;;;;22.77;13.52;;;;;;;30.21;45.16;99457.16;5013781;28;96913;-90
2022/06/20 06:45:35;;;;;;;17.85;14.63;;;;;;;29.68;45.68;99454.91;5014357;28;100278;-88
2022/06/20 06:48:12;;;;;;;16.52;12.93;;;;;;;30.00;45.39;99455.34;5026860;28;98059;-87
2022/06/20 06:50:41;;;;;;;18.08;14.77;;;;;;;30.38;44.20;99436.81;5022308;27;97631;-85
2022/06/20 06:53:21;;;;;;;21.75;15.80;;;;;;;30.61;44.51;99430.25;5030697;28;97707;-88
2022/06/20 06:55:50;;;;;;;18.70;14.73;;;;;;;30.72;43.75;99435.06;5027893;28;100322;-90
2022/06/20 06:58:29;;;;;;;16.85;15.10;;;;;;;30.97;43.32;99413.66;4997960;28;101674;-83
2022/06/20 07:01:11;;;;;;;17.25;13.88;;;;;;;30.39;44.04;99388.94;5011070;28;96824;-85
2022/06/20 07:03:40;;;;;;;18.00;13.63;;;;;;;30.51;44.30;99408.13;5002957;28;96870;-85
2022/06/20 07:06:14;;;;;;;15.00;13.55;;;;;;;30.17;43.80;99396.31;5010488;28;101252;-83
2022/06/20 07:08:47;;;;;;;19.88;14.85;;;;;;;30.28;44.15;99400.34;5022866;28;98062;-84
2022/06/20 07:11:22;;;;;;;17.05;14.18;;;;;;;30.58;43.68;99396.28;5030164;28;97345;-83
2022/06/20 07:14:01;;;;;;;18.13;14.25;;;;;;;30.77;43.84;99389.22;5029631;28;97505;-84
2022/06/20 07:16:40;;;;;;;20.98;15.07;;;;;;;30.92;43.38;99372.81;5027300;27;98127;-83
2022/06/20 07:19:08;;;;;;;19.55;13.43;;;;;;;31.62;42.44;99377.81;5033184;27;97773;-88
2022/06/20 07:21:34;;;;;;;15.75;14.25;;;;;;;32.00;41.73;99354.38;5022766;28;96813;-91
2022/06/20 07:24:05;;;;;;;14.50;13.02;;;;;;;32.29;41.56;99343.16;4993586;28;100145;-88
2022/06/20 07:26:39;;;;;;;20.65;14.23;;;;;;;32.34;41.14;99335.22;5006755;28;101382;-92
2022/06/20 07:29:16;;;;;;;16.45;14.38;;;;;;;32.65;40.48;99326.28;5011346;28;101367;-83
2022/06/20 07:31:59;;;;;;;16.20;13.57;;;;;;;32.82;40.33;99337.44;5027717;28;96854;-83
2022/06/20 07:34:38;;;;;;;16.17;14.70;;;;;;;32.80;40.00;99334.94;5018297;28;97427;-84
2022/06/20 07:37:18;;;;;;;18.90;14.25;;;;;;;32.80;40.17;99325.97;5004193;28;100906;-82
2022/06/20 07:40:08;;;;;;;16.98;13.73;;;;;;;32.86;40.02;99342.19;5016049;28;98282;-77
2022/06/20 07:42:54;;;;;;;14.57;13.02;;;;;;;32.91;39.98;99331.50;5023560;28;97381;-79
2022/06/20 07:45:26;;;;;;;14.48;13.02;;;;;;;33.04;40.20;99340.63;5005089;28;96901;-79
2022/06/20 07:48:00;;;;;;;20.45;13.10;;;;;;;33.14;39.96;99349.13;5008201;28;102128;-80
2022/06/20 07:50:45;;;;;;;14.30;12.70;;;;;;;32.44;40.83;99328.25;4992201;28;101552;-84
2022/06/20 07:53:29;;;;;;;14.02;12.45;;;;;;;31.24;42.98;99318.81;4997466;28;97366;-83
2022/06/20 07:55:59;;;;;;;15.43;12.70;;;;;;;31.10;43.21;99345.94;5017497;28;97321;-84
2022/06/20 07:58:34;;;;;;;17.90;12.90;;;;;;;30.78;44.11;99341.34;5005027;28;100828;-82
2022/06/20 08:01:03;;;;;;;16.42;13.45;;;;;;;30.49;44.81;99347.94;5020470;28;98650;-81
2022/06/20 08:03:42;;;;;;;16.40;12.25;;;;;;;30.11;45.82;99348.44;5002318;28;97715;-79
2022/06/20 08:06:10;;;;;;;23.80;12.40;;;;;;;29.87;46.03;99333.53;5009979;28;97417;-79
2022/06/20 08:08:43;;;;;;;15.82;12.65;;;;;;;29.51;46.43;99339.97;5028528;28;98564;-79
2022/06/20 08:11:50;;;;;;;15.45;13.40;;;;;;;28.98;47.58;99339.56;5008235;28;101642;-79
2022/06/20 08:14:43;;;;;;;14.25;12.75;;;;;;;29.02;48.05;99352.50;4997722;28;96922;-79
2022/06/20 08:17:11;;;;;;;17.67;13.23;;;;;;;28.93;48.58;99355.50;5026245;28;96778;-82
2022/06/20 08:19:39;;;;;;;19.60;12.45;;;;;;;28.98;48.28;99372.78;5004753;28;101073;-83
2022/06/20 08:22:19;;;;;;;18.48;13.43;;;;;;;28.51;49.44;99360.72;5023162;28;100495;-75
2022/06/20 08:24:49;;;;;;;19.92;13.70;;;;;;;27.74;51.85;99358.44;5011074;28;96998;-75
2022/06/20 08:27:26;;;;;;;24.73;15.18;;;;;;;27.20;53.05;99345.19;5008123;28;98373;-76
2022/06/20 08:30:04;;;;;;;14.88;12.77;;;;;;;26.79;54.79;99346.38;5025807;28;98213;-76
2022/06/20 08:32:39;;;;;;;20.92;14.55;;;;;;;26.40;55.54;99328.44;4998644;28;100932;-77
2022/06/20 08:35:20;;;;;;;26.10;13.88;;;;;;;26.19;56.53;99299.50;5012102;28;96923;-80
2022/06/20 08:37:50;;;;;;;18.60;13.45;;;;;;;26.15;57.31;99284.75;5017521;28;97994;-79
2022/06/20 08:40:30;;;;;;;18.52;12.95;;;;;;;26.03;57.74;99253.03;5017022;28;97278;-78
2022/06/20 08:43:05;;;;;;;20.85;13.68;;;;;;;25.91;58.48;99248.06;5018050;28;98060;-76
2022/06/20 08:45:46;;;;;;;15.00;13.38;;;;;;;26.13;58.63;99296.69;5026796;28;97233;-77
2022/06/20 08:48:55;;;;;;;17.77;13.48;;;;;;;26.15;59.00;99295.50;5019863;28;97626;-77
2022/06/20 08:52:06;;;;;;;24.30;14.43;;;;;;;25.72;60.29;99291.50;5014022;28;100992;-74
2022/06/20 08:55:02;;;;;;;17.13;13.45;;;;;;;25.53;61.31;99306.16;5028894;28;97984;-74
2022/06/20 08:57:43;;;;;;;22.05;13.90;;;;;;;25.51;61.32;99308.16;5025197;28;96817;-74
2022/06/20 09:00:19;;;;;;;16.60;13.88;;;;;;;25.61;60.33;99291.88;5015471;28;97261;-74
2022/06/20 09:02:55;;;;;;;23.77;13.55;;;;;;;25.85;60.11;99355.47;4995888;28;101003;-76
2022/06/20 09:05:47;;;;;;;18.63;12.88;;;;;;;25.93;60.04;99385.84;5009015;28;100223;-75
2022/06/20 09:08:41;;;;;;;14.20;12.77;;;;;;;25.92;60.80;99361.84;5024742;28;96991;-75
2022/06/20 09:11:18;;;;;;;17.10;12.50;;;;;;;25.94;60.53;99340.97;5004466;28;97080;-74
2022/06/20 09:14:09;;;;;;;16.58;14.07;;;;;;;25.93;59.28;99312.44;5010227;28;101413;-73
2022/06/20 09:17:09;;;;;;;14.65;12.43;;;;;;;26.06;57.85;99291.16;5030577;28;97976;-73
2022/06/20 09:19:53;;;;;;;18.63;13.77;;;;;;;26.10;57.19;99272.84;4990019;28;97455;-75
2022/06/20 09:22:43;;;;;;;20.60;14.80;;;;;;;26.11;58.26;99310.31;5027806;28;97417;-73
2022/06/20 09:25:36;;;;;;;19.10;13.90;;;;;;;26.33;58.23;99334.72;5030315;28;98267;-73
2022/06/20 09:28:24;;;;;;;16.75;13.15;;;;;;;26.36;58.38;99319.06;5023476;28;98156;-74
2022/06/20 09:31:08;;;;;;;17.63;13.57;;;;;;;26.34;57.70;99317.56;5030334;28;97651;-73
2022/06/20 09:33:58;;;;;;;23.83;15.45;;;;;;;26.33;57.59;99340.94;5032466;28;97381;-74
2022/06/20 09:36:38;;;;;;;20.27;14.60;;;;;;;26.36;57.45;99380.94;5028401;28;101323;-73
2022/06/20 09:39:33;;;;;;;20.00;14.68;;;;;;;26.23;58.33;99387.91;5017038;28;97790;-76
2022/06/20 09:42:07;;;;;;;14.70;12.52;;;;;;;26.31;57.61;99388.69;5014534;28;96834;-72
2022/06/20 09:44:32;;;;;;;19.77;14.48;;;;;;;26.26;58.05;99403.69;5014945;28;97499;-73
2022/06/20 09:47:00;;;;;;;17.20;13.40;;;;;;;26.29;58.04;99414.09;5018437;28;97574;-73
2022/06/20 09:49:33;;;;;;;16.67;12.70;;;;;;;26.29;58.10;99411.41;4997709;28;101642;-74
2022/06/20 09:52:13;;;;;;;24.58;14.00;;;;;;;26.24;58.83;99395.81;5021259;28;96815;-74
2022/06/20 09:55:06;;;;;;;18.20;13.15;;;;;;;26.23;58.77;99425.56;5022345;28;97164;-75
2022/06/20 09:57:47;;;;;;;18.77;12.82;;;;;;;26.15;58.89;99429.97;5015012;28;99374;-73
2022/06/20 10:00:21;;;;;;;24.00;13.63;;;;;;;26.29;57.91;99441.81;5017650;27;97908;-72
2022/06/20 10:02:57;;;;;;;20.08;12.60;;;;;;;26.04;57.58;99476.03;5014569;28;97335;-72
2022/06/20 10:05:34;;;;;;;17.60;12.23;;;;;;;25.93;57.13;99484.47;5006172;28;97311;-75
2022/06/20 10:08:12;;;;;;;18.50;12.98;;;;;;;25.47;58.28;99495.72;5014985;28;100910;-72
2022/06/20 10:10:58;;;;;;;18.23;12.98;;;;;;;25.14;59.05;99475.25;5026842;28;97206;-77
2022/06/20 10:13:45;;;;;;;20.02;13.00;;;;;;;24.75;60.63;99460.53;5017957;28;97400;-72
2022/06/20 10:16:22;;;;;;;18.95;13.77;;;;;;;24.71;61.89;99442.25;5026433;28;97190;-75
2022/06/20 10:18:57;;;;;;;19.83;13.27;;;;;;;24.79;61.69;99434.25;5019313;28;97580;-72
2022/06/20 10:21:34;;;;;;;18.88;12.70;;;;;;;24.78;63.00;99437.91;5012745;28;97929;-73
2022/06/20 10:24:18;;;;;;;21.55;13.27;;;;;;;24.93;62.20;99438.97;5023086;28;96857;-72
2022/06/20 10:26:57;;;;;;;28.15;14.15;;;;;;;24.99;61.97;99402.56;5022708;28;96641;-73
2022/06/20 10:29:42;;;;;;;18.45;13.15;;;;;;;24.79;63.38;99410.91;5011899;28;102534;-74
2022/06/20 10:32:39;;;;;;;19.20;14.82;;;;;;;24.77;64.25;99404.03;5020627;28;97444;-77
2022/06/20 10:35:23;;;;;;;19.95;13.45;;;;;;;24.83;63.55;99447.16;5030067;28;96867;-78
2022/06/20 10:38:11;;;;;;;22.42;14.00;;;;;;;24.85;63.82;99461.25;5026196;28;96930;-72
2022/06/20 10:41:21;;;;;;;18.02;13.52;;;;;;;24.91;63.84;99477.69;5019484;28;98108;-72
2022/06/20 10:43:49;;;;;;;16.70;14.93;;;;;;;24.66;64.50;99483.00;5007497;27;97966;-74
2022/06/20 10:46:41;;;;;;;20.55;14.70;;;;;;;24.17;65.69;99472.91;5017956;28;98036;-74
2022/06/20 10:49:29;;;;;;;18.38;13.95;;;;;;;23.94;66.39;99426.22;5014758;28;98216;-79
2022/06/20 10:52:08;;;;;;;22.15;14.13;;;;;;;24.14;65.83;99410.69;5023883;28;97454;-73
2022/06/20 10:54:49;;;;;;;19.88;14.60;;;;;;;23.70;67.11;99374.13;5020301;28;97962;-74
2022/06/20 10:57:15;;;;;;;18.63;14.63;;;;;;;23.89;66.33;99375.75;5031814;28;96715;-72
2022/06/20 11:00:13;;;;;;;15.55;13.50;;;;;;;23.98;66.55;99407.97;5031993;28;96785;-73
2022/06/20 11:03:17;;;;;;;15.85;13.15;;;;;;;24.07;65.74;99457.91;5027893;28;97440;-73
2022/06/20 11:06:07;;;;;;;18.95;14.43;;;;;;;24.12;65.78;99435.00;5027806;28;98031;-72
2022/06/20 11:08:59;;;;;;;16.30;13.40;;;;;;;24.17;65.76;99442.53;5013190;28;96894;-73
2022/06/20 11:11:39;;;;;;;15.27;13.95;;;;;;;24.27;65.35;99475.44;5034700;27;97181;-72
2022/06/20 11:14:29;;;;;;;15.15;13.55;;;;;;;24.42;65.26;99475.69;5021349;28;97925;-72
2022/06/20 11:17:17;;;;;;;16.73;13.80;;;;;;;24.34;65.77;99432.72;5029261;28;98412;-73
2022/06/20 11:20:05;;;;;;;15.20;13.65;;;;;;;24.51;65.74;99464.00;5020177;28;97327;-75
2022/06/20 11:22:39;;;;;;;17.85;13.75;;;;;;;24.59;64.76;99464.03;5011861;28;96877;-72
2022/06/20 11:25:23;;;;;;;15.60;13.65;;;;;;;24.61;63.18;99456.66;5022130;28;98123;-72
2022/06/20 11:28:10;;;;;;;19.70;14.65;;;;;;;24.34;64.47;99464.91;5031305;28;97627;-72
2022/06/20 11:30:38;;;;;;;15.68;14.23;;;;;;;24.00;65.53;99465.78;5021431;28;96900;-73
2022/06/20 11:34:00;;;;;;;14.50;13.07;;;;;;;24.13;65.34;99450.06;5013055;28;97326;-73
2022/06/20 11:36:14;;;;;;;14.13;12.73;;;;;;;24.40;65.58;99442.81;5029366;28;97525;-80
2022/06/20 11:38:48;;;;;;;16.38;13.23;;;;;;;24.46;64.83;99426.09;5011876;28;100993;-76
2022/06/20 11:41:23;;;;;;;14.07;12.80;;;;;;;24.65;65.11;99434.88;5031101;27;96807;-72
2022/06/20 11:44:06;;;;;;;16.33;13.05;;;;;;;24.73;65.05;99402.69;5028235;28;97097;-71
2022/06/20 11:46:50;;;;;;;15.00;13.45;;;;;;;24.95;65.04;99415.47;5009193;28;97927;-73
2022/06/20 11:49:35;;;;;;;18.75;13.88;;;;;;;25.01;64.84;99425.53;5016685;28;98285;-73
2022/06/20 11:52:20;;;;;;;14.75;13.32;;;;;;;25.07;64.32;99414.16;5008747;28;96824;-69
2022/06/20 11:55:07;;;;;;;17.27;15.48;;;;;;;25.25;64.58;99419.38;5028221;28;96741;-74
2022/06/20 11:57:44;;;;;;;16.15;14.43;;;;;;;25.29;64.34;99414.50;5026252;28;99035;-71
2022/06/20 12:00:18;;;;;;;20.40;17.52;;;;;;;25.24;63.91;99423.03;5027447;28;97453;-75
2022/06/20 12:03:02;;;;;;;16.98;15.38;;;;;;;25.37;61.83;99432.47;5008959;28;96882;-71
2022/06/20 12:05:36;;;;;;;18.83;16.85;;;;;;;25.38;62.18;99431.44;5019285;28;98390;-72